Terminal Aerodrome Forecast
Issued by NWS

Home | Current Version | Previous Version | Text Only | Print | Product List | Glossary Off
Versions: 1 2 3 4 5 6 7 8 9 10 11 12 13 14 15 16 17 18 19 20 21 22

000
FTUS41 KCLE 311148
TAFFDY
TAF
KFDY 311148Z 3112/0112 05014KT 5SM -SHRA BR BKN007 OVC012
     FM311400 06015KT 2SM RA OVC005
     FM311600 04015G25KT 2SM RA BR OVC003
     FM311900 04018G28KT 6SM BR VCSH OVC007
     FM010200 02014KT P6SM OVC005=

USA.gov is the U.S. government's official web portal to all federal, state and local government web resources and services.